»·PEaware :: QXE952 KSFO-KSBA

QXE952 :: KSFO-KSBA

FLIGHT INFORMATION

Flight Status: Arrived
Operator:
Horizon Air
More flights by this operator :: More flights under this callsign
Pilot: Jack B. (5846)
Aircraft: Unknown
(DHC8)
More flights by this aircraft type
Origin: KSFO San Francisco Intl
United States
Destination: KSBA Santa Barbara Mun
United States
More flights between these airports :: More routes between these airports
Route: OFFSH9 RZS
File this flight plan on PilotEdge
Remarks:
Altitude:
(Current/Filed)
250ft
Speed:
(Current/Filed)
250kts
Departed: 22-Jun-15 08:03 AM
Arrived: 22-Jun-15 09:21 AM
Distance/Time
Traveled:
228nm/1:18
Distance/Time
To Go:
Arrived

Flight Plot

Page will automatically refresh every two minutes.


Map Options




Map Legend


Flown Route
Filed Route
Departure Airport
Arrival Airport
Navaid (VOR, NDB)
Fix

Horizontal Profiles

Position Reports

Time Latitude Longitude Heading Altitude Ground
Speed
22-Jun-15 07:32 37.614009 -122.384435 252 30ft 0kts
22-Jun-15 07:33 37.614009 -122.384435 252 30ft 0kts
22-Jun-15 07:34 37.614009 -122.384435 252 30ft 0kts
22-Jun-15 07:35 37.614009 -122.384435 252 30ft 0kts
22-Jun-15 07:36 37.614009 -122.384435 252 30ft 0kts
22-Jun-15 07:37 37.614009 -122.384435 252 30ft 0kts
22-Jun-15 07:38 37.614009 -122.384435 252 30ft 0kts
22-Jun-15 07:39 37.614009 -122.384435 252 30ft 0kts
22-Jun-15 07:40 37.614009 -122.384435 252 30ft 0kts
22-Jun-15 07:41 37.614009 -122.384435 252 30ft 0kts
22-Jun-15 07:42 37.614009 -122.384435 252 30ft 0kts
22-Jun-15 07:43 37.614009 -122.384435 252 30ft 0kts
22-Jun-15 07:44 37.614009 -122.384435 252 30ft 0kts
22-Jun-15 07:45 37.614009 -122.384435 252 30ft 0kts
22-Jun-15 07:46 37.614009 -122.384435 252 30ft 0kts
22-Jun-15 07:47 37.614009 -122.384435 252 30ft 0kts
22-Jun-15 07:48 37.614009 -122.384435 252 30ft 0kts
22-Jun-15 07:49 37.614009 -122.384435 252 30ft 0kts
22-Jun-15 07:50 37.614009 -122.384435 252 30ft 0kts
22-Jun-15 07:51 37.614009 -122.384435 252 30ft 0kts
22-Jun-15 07:52 37.614009 -122.384435 252 30ft 0kts
22-Jun-15 07:53 37.614009 -122.384435 252 30ft 0kts
22-Jun-15 07:54 37.614115 -122.384030 249 29ft 2kts
22-Jun-15 07:55 37.614119 -122.384019 249 29ft 0kts
22-Jun-15 07:56 37.614119 -122.384019 249 29ft 0kts
22-Jun-15 07:57 37.614119 -122.384019 249 30ft 0kts
22-Jun-15 07:58 37.613765 -122.383064 116 30ft 16kts
22-Jun-15 07:59 37.611495 -122.382997 205 30ft 17kts
22-Jun-15 08:00 37.609500 -122.383870 120 30ft 15kts
22-Jun-15 08:01 37.609339 -122.381986 27 28ft 7kts
22-Jun-15 08:02 37.626168 -122.371320 17 616ft 142kts
22-Jun-15 08:03 37.654204 -122.367536 2 2206ft 162kts
22-Jun-15 08:04 37.680286 -122.364862 338 3468ft 184kts
22-Jun-15 08:05 37.691345 -122.387061 261 4587ft 187kts
22-Jun-15 08:06 37.670328 -122.414750 218 5989ft 204kts
22-Jun-15 08:07 37.651012 -122.450465 245 7348ft 217kts
22-Jun-15 08:08 37.631276 -122.499906 245 8720ft 242kts
22-Jun-15 08:09 37.608288 -122.557283 244 10134ft 264kts
22-Jun-15 08:10 37.583823 -122.618191 244 11521ft 280kts
22-Jun-15 08:11 37.557683 -122.683077 244 12918ft 292kts
22-Jun-15 08:12 37.505084 -122.710637 173 14339ft 303kts
22-Jun-15 08:13 37.440148 -122.696794 168 15819ft 311kts
22-Jun-15 08:14 37.377134 -122.680561 168 17150ft 316kts
22-Jun-15 08:15 37.307883 -122.662357 168 18588ft 316kts
22-Jun-15 08:16 37.235227 -122.643274 168 20097ft 313kts
22-Jun-15 08:17 37.170694 -122.626351 168 21244ft 314kts
22-Jun-15 08:18 37.107640 -122.609826 168 22270ft 314kts
22-Jun-15 08:19 37.043110 -122.592921 168 23317ft 312kts
22-Jun-15 08:20 36.978289 -122.575994 168 24177ft 315kts
22-Jun-15 08:21 36.913669 -122.559194 168 24973ft 316kts
22-Jun-15 08:22 36.846047 -122.541623 169 25024ft 338kts
22-Jun-15 08:23 36.775356 -122.523285 169 25015ft 352kts
22-Jun-15 08:24 36.699443 -122.503634 169 25000ft 360kts
22-Jun-15 08:25 36.632289 -122.486258 169 25012ft 366kts
22-Jun-15 08:26 36.558546 -122.467212 169 25011ft 369kts
22-Jun-15 08:27 36.481544 -122.447356 169 25013ft 362kts
22-Jun-15 08:28 36.414272 -122.415334 135 25020ft 368kts
22-Jun-15 08:29 36.361339 -122.342601 130 25011ft 372kts
22-Jun-15 08:30 36.308825 -122.266284 129 25010ft 370kts
22-Jun-15 08:31 36.256475 -122.190024 130 25010ft 373kts
22-Jun-15 08:32 36.203006 -122.112325 130 25010ft 375kts
22-Jun-15 08:33 36.148322 -122.033081 130 25010ft 376kts
22-Jun-15 08:34 36.092872 -121.952881 129 25010ft 376kts
22-Jun-15 08:35 36.038246 -121.873790 130 25007ft 374kts
22-Jun-15 08:36 35.981480 -121.791674 130 25146ft 366kts
22-Jun-15 08:37 35.920694 -121.704346 130 25150ft 372kts
22-Jun-15 08:38 35.857334 -121.613653 130 25147ft 374kts
22-Jun-15 08:39 35.793003 -121.521782 130 25133ft 367kts
22-Jun-15 08:40 35.730747 -121.433021 130 25131ft 364kts
22-Jun-15 08:41 35.668507 -121.344622 130 25130ft 365kts
22-Jun-15 08:42 35.604870 -121.254442 130 25130ft 366kts
22-Jun-15 08:43 35.542466 -121.166235 130 25126ft 358kts
22-Jun-15 08:44 35.481733 -121.080987 130 25126ft 362kts
22-Jun-15 08:45 35.426091 -121.003185 130 25113ft 366kts
22-Jun-15 08:46 35.375570 -120.932279 130 25104ft 369kts
22-Jun-15 08:47 35.329156 -120.866947 130 24189ft 358kts
22-Jun-15 08:48 35.286727 -120.807353 130 23231ft 344kts
22-Jun-15 08:49 35.245482 -120.750015 131 22243ft 349kts
22-Jun-15 08:50 35.202717 -120.692557 131 21216ft 349kts
22-Jun-15 08:51 35.156165 -120.629830 131 19883ft 336kts
22-Jun-15 08:52 35.109927 -120.567671 132 18520ft 325kts
22-Jun-15 08:53 35.070144 -120.514300 132 17340ft 323kts
22-Jun-15 08:54 35.027277 -120.456888 133 16061ft 319kts
22-Jun-15 08:55 34.994652 -120.413262 133 15147ft 313kts
22-Jun-15 08:56 34.958796 -120.365360 133 15067ft 307kts
22-Jun-15 08:57 34.925627 -120.321096 133 14928ft 309kts
22-Jun-15 08:58 34.876917 -120.256268 133 14016ft 305kts
22-Jun-15 08:59 34.833304 -120.198289 133 13179ft 301kts
22-Jun-15 09:00 34.796190 -120.149004 133 12433ft 291kts
22-Jun-15 09:01 34.750171 -120.088018 133 11510ft 291kts
22-Jun-15 09:02 34.700459 -120.022269 133 10540ft 298kts
22-Jun-15 09:03 34.649241 -119.967477 154 9551ft 275kts
22-Jun-15 09:04 34.593049 -119.931661 149 8468ft 259kts
22-Jun-15 09:05 34.541410 -119.895257 151 7170ft 253kts
22-Jun-15 09:06 34.498254 -119.866679 142 5988ft 250kts
22-Jun-15 09:07 34.476957 -119.819610 112 4892ft 246kts
22-Jun-15 09:08 34.461150 -119.771025 109 3816ft 244kts
22-Jun-15 09:09 34.447241 -119.723515 110 3304ft 217kts
22-Jun-15 09:10 34.416355 -119.707891 216 3314ft 188kts
22-Jun-15 09:11 34.419011 -119.734898 315 2900ft 136kts
22-Jun-15 09:12 34.427003 -119.756947 285 2942ft 132kts
22-Jun-15 09:13 34.427778 -119.781271 271 2375ft 120kts
22-Jun-15 09:14 34.427738 -119.804463 270 1481ft 126kts
22-Jun-15 09:15 34.427704 -119.831786 268 288ft 117kts
22-Jun-15 09:16 34.423670 -119.856311 220 439ft 127kts
22-Jun-15 09:17 34.390095 -119.850374 141 1404ft 145kts
22-Jun-15 09:18 34.394200 -119.829318 4 1558ft 122kts
22-Jun-15 09:19 34.415294 -119.837100 346 324ft 126kts
22-Jun-15 09:20 34.430196 -119.840730 86 13ft 19kts
22-Jun-15 09:21 34.428300 -119.838947 167 13ft 11kts
22-Jun-15 09:22 34.425497 -119.837267 95 13ft 2kts
22-Jun-15 09:23 34.425497 -119.837263 95 13ft 0kts

Navigation Log

Ident Type
Flight plan parsing failed, navigation log unavailable